sensor_id;sensor_type;location;lat;lon;timestamp;P1;durP1;ratioP1;P2;durP2;ratioP2
26686;SDS011;14298;50.900;4.648;2024-03-02T00:02:15;1.20;;;1.20;;
26686;SDS011;14298;50.900;4.648;2024-03-02T00:04:46;1.10;;;1.10;;
26686;SDS011;14298;50.900;4.648;2024-03-02T00:07:14;0.97;;;0.97;;
26686;SDS011;14298;50.900;4.648;2024-03-02T00:09:43;0.90;;;0.90;;
26686;SDS011;14298;50.900;4.648;2024-03-02T00:12:11;1.00;;;1.00;;
26686;SDS011;14298;50.900;4.648;2024-03-02T00:14:40;0.77;;;0.77;;
26686;SDS011;14298;50.900;4.648;2024-03-02T00:17:09;1.10;;;1.00;;
26686;SDS011;14298;50.900;4.648;2024-03-02T00:19:38;0.80;;;0.80;;
26686;SDS011;14298;50.900;4.648;2024-03-02T00:22:07;1.00;;;1.00;;
26686;SDS011;14298;50.900;4.648;2024-03-02T00:24:35;0.80;;;0.80;;
26686;SDS011;14298;50.900;4.648;2024-03-02T00:27:03;0.97;;;0.97;;
26686;SDS011;14298;50.900;4.648;2024-03-02T00:32:19;0.63;;;0.63;;
26686;SDS011;14298;50.900;4.648;2024-03-02T00:34:47;1.20;;;1.03;;
26686;SDS011;14298;50.900;4.648;2024-03-02T00:37:15;0.73;;;0.73;;
26686;SDS011;14298;50.900;4.648;2024-03-02T00:39:43;0.80;;;0.80;;
26686;SDS011;14298;50.900;4.648;2024-03-02T00:42:11;0.80;;;0.80;;
26686;SDS011;14298;50.900;4.648;2024-03-02T00:44:39;0.97;;;0.97;;
26686;SDS011;14298;50.900;4.648;2024-03-02T00:47:07;0.90;;;0.90;;
26686;SDS011;14298;50.900;4.648;2024-03-02T00:49:35;0.90;;;0.90;;
26686;SDS011;14298;50.900;4.648;2024-03-02T00:52:03;0.80;;;0.80;;
26686;SDS011;14298;50.900;4.648;2024-03-02T00:57:20;0.80;;;0.80;;
26686;SDS011;14298;50.900;4.648;2024-03-02T00:59:50;0.80;;;0.80;;
26686;SDS011;14298;50.900;4.648;2024-03-02T01:02:18;0.97;;;0.97;;
26686;SDS011;14298;50.900;4.648;2024-03-02T01:04:47;0.93;;;0.93;;
26686;SDS011;14298;50.900;4.648;2024-03-02T01:07:15;1.70;;;1.60;;
26686;SDS011;14298;50.900;4.648;2024-03-02T01:09:43;0.87;;;0.87;;
26686;SDS011;14298;50.900;4.648;2024-03-02T01:12:12;1.20;;;1.20;;
26686;SDS011;14298;50.900;4.648;2024-03-02T01:14:40;0.90;;;0.90;;
26686;SDS011;14298;50.900;4.648;2024-03-02T01:17:08;0.90;;;0.90;;
26686;SDS011;14298;50.900;4.648;2024-03-02T01:19:36;1.10;;;1.10;;
26686;SDS011;14298;50.900;4.648;2024-03-02T01:22:05;2.63;;;1.20;;
26686;SDS011;14298;50.900;4.648;2024-03-02T01:24:33;1.37;;;1.33;;
26686;SDS011;14298;50.900;4.648;2024-03-02T01:27:01;1.50;;;1.40;;
26686;SDS011;14298;50.900;4.648;2024-03-02T01:29:29;1.77;;;0.93;;
26686;SDS011;14298;50.900;4.648;2024-03-02T01:31:56;0.90;;;0.90;;
26686;SDS011;14298;50.900;4.648;2024-03-02T01:34:25;0.90;;;0.90;;
26686;SDS011;14298;50.900;4.648;2024-03-02T01:36:53;1.77;;;1.67;;
26686;SDS011;14298;50.900;4.648;2024-03-02T01:39:21;1.00;;;1.00;;
26686;SDS011;14298;50.900;4.648;2024-03-02T01:41:49;1.93;;;1.80;;
26686;SDS011;14298;50.900;4.648;2024-03-02T01:44:17;1.57;;;1.50;;
26686;SDS011;14298;50.900;4.648;2024-03-02T01:46:45;1.17;;;1.17;;
26686;SDS011;14298;50.900;4.648;2024-03-02T01:49:13;1.53;;;1.53;;
26686;SDS011;14298;50.900;4.648;2024-03-02T01:51:41;1.20;;;1.20;;
26686;SDS011;14298;50.900;4.648;2024-03-02T01:54:09;1.10;;;1.10;;
26686;SDS011;14298;50.900;4.648;2024-03-02T01:56:37;0.90;;;0.90;;
26686;SDS011;14298;50.900;4.648;2024-03-02T01:59:05;1.20;;;1.20;;
26686;SDS011;14298;50.900;4.648;2024-03-02T02:01:33;1.10;;;1.10;;
26686;SDS011;14298;50.900;4.648;2024-03-02T02:04:01;1.27;;;1.27;;
26686;SDS011;14298;50.900;4.648;2024-03-02T02:06:29;1.17;;;1.17;;
26686;SDS011;14298;50.900;4.648;2024-03-02T02:08:57;1.00;;;1.00;;
26686;SDS011;14298;50.900;4.648;2024-03-02T02:11:25;0.80;;;0.80;;
26686;SDS011;14298;50.900;4.648;2024-03-02T02:13:53;1.23;;;1.23;;
26686;SDS011;14298;50.900;4.648;2024-03-02T02:16:22;1.00;;;1.00;;
26686;SDS011;14298;50.900;4.648;2024-03-02T02:18:50;0.87;;;0.87;;
26686;SDS011;14298;50.900;4.648;2024-03-02T02:21:22;0.83;;;0.83;;
26686;SDS011;14298;50.900;4.648;2024-03-02T02:23:48;1.07;;;1.07;;
26686;SDS011;14298;50.900;4.648;2024-03-02T02:26:17;0.80;;;0.80;;
26686;SDS011;14298;50.900;4.648;2024-03-02T02:28:45;0.90;;;0.90;;
26686;SDS011;14298;50.900;4.648;2024-03-02T02:31:15;1.63;;;1.00;;
26686;SDS011;14298;50.900;4.648;2024-03-02T02:33:44;1.23;;;1.10;;
26686;SDS011;14298;50.900;4.648;2024-03-02T02:36:12;4.53;;;1.17;;
26686;SDS011;14298;50.900;4.648;2024-03-02T02:38:44;0.97;;;0.97;;
26686;SDS011;14298;50.900;4.648;2024-03-02T02:41:12;1.47;;;1.20;;
26686;SDS011;14298;50.900;4.648;2024-03-02T02:43:40;1.20;;;1.10;;
26686;SDS011;14298;50.900;4.648;2024-03-02T02:46:08;0.80;;;0.80;;
26686;SDS011;14298;50.900;4.648;2024-03-02T02:48:36;0.93;;;0.93;;
26686;SDS011;14298;50.900;4.648;2024-03-02T02:51:04;0.80;;;0.80;;
26686;SDS011;14298;50.900;4.648;2024-03-02T02:53:32;0.90;;;0.90;;
26686;SDS011;14298;50.900;4.648;2024-03-02T02:56:02;0.90;;;0.90;;
26686;SDS011;14298;50.900;4.648;2024-03-02T02:58:30;0.90;;;0.90;;
26686;SDS011;14298;50.900;4.648;2024-03-02T03:00:58;0.73;;;0.73;;
26686;SDS011;14298;50.900;4.648;2024-03-02T03:03:26;0.93;;;0.93;;
26686;SDS011;14298;50.900;4.648;2024-03-02T03:05:54;1.23;;;1.23;;
26686;SDS011;14298;50.900;4.648;2024-03-02T03:08:22;0.80;;;0.80;;
26686;SDS011;14298;50.900;4.648;2024-03-02T03:10:50;1.00;;;1.00;;
26686;SDS011;14298;50.900;4.648;2024-03-02T03:13:18;1.10;;;1.10;;
26686;SDS011;14298;50.900;4.648;2024-03-02T03:15:46;0.90;;;0.90;;
26686;SDS011;14298;50.900;4.648;2024-03-02T03:18:14;1.33;;;1.33;;
26686;SDS011;14298;50.900;4.648;2024-03-02T03:20:42;1.00;;;1.00;;
26686;SDS011;14298;50.900;4.648;2024-03-02T03:23:10;1.00;;;1.00;;
26686;SDS011;14298;50.900;4.648;2024-03-02T03:25:40;1.10;;;1.10;;
26686;SDS011;14298;50.900;4.648;2024-03-02T03:28:08;1.20;;;1.20;;
26686;SDS011;14298;50.900;4.648;2024-03-02T03:30:39;1.40;;;1.33;;
26686;SDS011;14298;50.900;4.648;2024-03-02T03:33:08;0.90;;;0.90;;
26686;SDS011;14298;50.900;4.648;2024-03-02T03:35:36;1.17;;;1.07;;
26686;SDS011;14298;50.900;4.648;2024-03-02T03:38:04;0.90;;;0.90;;
26686;SDS011;14298;50.900;4.648;2024-03-02T03:40:32;0.80;;;0.80;;
26686;SDS011;14298;50.900;4.648;2024-03-02T03:43:00;1.00;;;1.00;;
26686;SDS011;14298;50.900;4.648;2024-03-02T03:45:28;1.10;;;1.10;;
26686;SDS011;14298;50.900;4.648;2024-03-02T03:47:57;1.07;;;1.07;;
26686;SDS011;14298;50.900;4.648;2024-03-02T03:50:25;1.00;;;1.00;;
26686;SDS011;14298;50.900;4.648;2024-03-02T03:52:53;1.10;;;1.10;;
26686;SDS011;14298;50.900;4.648;2024-03-02T03:55:21;0.80;;;0.80;;
26686;SDS011;14298;50.900;4.648;2024-03-02T03:57:49;1.53;;;1.43;;
26686;SDS011;14298;50.900;4.648;2024-03-02T04:00:17;1.00;;;1.00;;
26686;SDS011;14298;50.900;4.648;2024-03-02T04:02:45;1.10;;;1.10;;
26686;SDS011;14298;50.900;4.648;2024-03-02T04:05:13;1.00;;;1.00;;
26686;SDS011;14298;50.900;4.648;2024-03-02T04:07:41;1.60;;;1.60;;
26686;SDS011;14298;50.900;4.648;2024-03-02T04:13:03;1.70;;;1.40;;
26686;SDS011;14298;50.900;4.648;2024-03-02T04:15:31;1.13;;;1.13;;
26686;SDS011;14298;50.900;4.648;2024-03-02T04:17:59;4.53;;;1.27;;
26686;SDS011;14298;50.900;4.648;2024-03-02T04:20:27;1.10;;;1.10;;
26686;SDS011;14298;50.900;4.648;2024-03-02T04:22:55;1.90;;;1.20;;
26686;SDS011;14298;50.900;4.648;2024-03-02T04:25:23;1.30;;;1.30;;
26686;SDS011;14298;50.900;4.648;2024-03-02T04:27:51;1.60;;;1.50;;
26686;SDS011;14298;50.900;4.648;2024-03-02T04:33:06;1.33;;;1.33;;
26686;SDS011;14298;50.900;4.648;2024-03-02T04:35:36;0.90;;;0.90;;
26686;SDS011;14298;50.900;4.648;2024-03-02T04:38:04;0.90;;;0.90;;
26686;SDS011;14298;50.900;4.648;2024-03-02T04:40:32;1.60;;;1.50;;
26686;SDS011;14298;50.900;4.648;2024-03-02T04:43:00;2.93;;;1.40;;
26686;SDS011;14298;50.900;4.648;2024-03-02T04:45:29;0.90;;;0.90;;
26686;SDS011;14298;50.900;4.648;2024-03-02T04:47:57;3.53;;;1.53;;
26686;SDS011;14298;50.900;4.648;2024-03-02T04:50:25;1.03;;;1.03;;
26686;SDS011;14298;50.900;4.648;2024-03-02T04:52:53;2.37;;;1.33;;
26686;SDS011;14298;50.900;4.648;2024-03-02T04:55:21;1.00;;;1.00;;
26686;SDS011;14298;50.900;4.648;2024-03-02T04:57:54;1.20;;;1.20;;
26686;SDS011;14298;50.900;4.648;2024-03-02T05:00:22;1.93;;;1.83;;
26686;SDS011;14298;50.900;4.648;2024-03-02T05:02:50;1.90;;;1.80;;
26686;SDS011;14298;50.900;4.648;2024-03-02T05:05:18;1.97;;;1.97;;
26686;SDS011;14298;50.900;4.648;2024-03-02T05:07:46;1.60;;;1.60;;
26686;SDS011;14298;50.900;4.648;2024-03-02T05:10:14;2.00;;;1.90;;
26686;SDS011;14298;50.900;4.648;2024-03-02T05:12:42;1.50;;;1.50;;
26686;SDS011;14298;50.900;4.648;2024-03-02T05:15:12;2.37;;;2.27;;
26686;SDS011;14298;50.900;4.648;2024-03-02T05:17:41;2.27;;;2.20;;
26686;SDS011;14298;50.900;4.648;2024-03-02T05:20:10;2.20;;;2.20;;
26686;SDS011;14298;50.900;4.648;2024-03-02T05:22:38;1.90;;;1.90;;
26686;SDS011;14298;50.900;4.648;2024-03-02T05:25:07;1.80;;;1.80;;
26686;SDS011;14298;50.900;4.648;2024-03-02T05:27:36;2.60;;;2.50;;
26686;SDS011;14298;50.900;4.648;2024-03-02T05:30:05;2.73;;;2.63;;
26686;SDS011;14298;50.900;4.648;2024-03-02T05:32:33;1.63;;;1.63;;
26686;SDS011;14298;50.900;4.648;2024-03-02T05:35:01;2.20;;;2.20;;
26686;SDS011;14298;50.900;4.648;2024-03-02T05:37:30;2.57;;;2.47;;
26686;SDS011;14298;50.900;4.648;2024-03-02T05:39:58;2.47;;;2.27;;
26686;SDS011;14298;50.900;4.648;2024-03-02T05:42:26;2.50;;;2.40;;
26686;SDS011;14298;50.900;4.648;2024-03-02T05:44:54;2.20;;;2.10;;
26686;SDS011;14298;50.900;4.648;2024-03-02T05:47:22;2.23;;;2.13;;
26686;SDS011;14298;50.900;4.648;2024-03-02T05:49:50;2.00;;;2.00;;
26686;SDS011;14298;50.900;4.648;2024-03-02T05:52:18;2.00;;;2.00;;
26686;SDS011;14298;50.900;4.648;2024-03-02T05:54:47;1.80;;;1.80;;
26686;SDS011;14298;50.900;4.648;2024-03-02T05:57:16;2.53;;;2.33;;
26686;SDS011;14298;50.900;4.648;2024-03-02T05:59:46;1.60;;;1.60;;
26686;SDS011;14298;50.900;4.648;2024-03-02T06:02:14;1.93;;;1.83;;
26686;SDS011;14298;50.900;4.648;2024-03-02T06:04:42;2.03;;;2.03;;
26686;SDS011;14298;50.900;4.648;2024-03-02T06:07:10;3.57;;;2.70;;
26686;SDS011;14298;50.900;4.648;2024-03-02T06:12:25;1.77;;;1.77;;
26686;SDS011;14298;50.900;4.648;2024-03-02T06:14:53;4.30;;;2.20;;
26686;SDS011;14298;50.900;4.648;2024-03-02T06:17:21;2.30;;;2.10;;
26686;SDS011;14298;50.900;4.648;2024-03-02T06:19:49;2.33;;;2.23;;
26686;SDS011;14298;50.900;4.648;2024-03-02T06:22:17;3.23;;;3.03;;
26686;SDS011;14298;50.900;4.648;2024-03-02T06:24:46;1.90;;;1.90;;
26686;SDS011;14298;50.900;4.648;2024-03-02T06:27:14;2.10;;;2.10;;
26686;SDS011;14298;50.900;4.648;2024-03-02T06:29:42;2.07;;;1.97;;
26686;SDS011;14298;50.900;4.648;2024-03-02T06:32:10;1.50;;;1.50;;
26686;SDS011;14298;50.900;4.648;2024-03-02T06:34:38;1.97;;;1.87;;
26686;SDS011;14298;50.900;4.648;2024-03-02T06:39:53;15.47;;;2.77;;
26686;SDS011;14298;50.900;4.648;2024-03-02T06:45:08;4.60;;;4.30;;
26686;SDS011;14298;50.900;4.648;2024-03-02T06:47:36;3.27;;;2.60;;
26686;SDS011;14298;50.900;4.648;2024-03-02T06:50:04;2.00;;;1.90;;
26686;SDS011;14298;50.900;4.648;2024-03-02T06:52:34;1.90;;;1.90;;
26686;SDS011;14298;50.900;4.648;2024-03-02T06:55:02;2.10;;;2.00;;
26686;SDS011;14298;50.900;4.648;2024-03-02T06:57:31;5.47;;;4.67;;
26686;SDS011;14298;50.900;4.648;2024-03-02T06:59:59;3.40;;;3.20;;
26686;SDS011;14298;50.900;4.648;2024-03-02T07:02:27;3.50;;;3.20;;
26686;SDS011;14298;50.900;4.648;2024-03-02T07:04:55;4.13;;;3.83;;
26686;SDS011;14298;50.900;4.648;2024-03-02T07:07:23;4.67;;;4.03;;
26686;SDS011;14298;50.900;4.648;2024-03-02T07:09:51;2.87;;;2.67;;
26686;SDS011;14298;50.900;4.648;2024-03-02T07:12:19;2.67;;;2.57;;
26686;SDS011;14298;50.900;4.648;2024-03-02T07:14:47;2.40;;;2.30;;
26686;SDS011;14298;50.900;4.648;2024-03-02T07:20:18;2.30;;;2.20;;
26686;SDS011;14298;50.900;4.648;2024-03-02T07:22:46;2.00;;;1.90;;
26686;SDS011;14298;50.900;4.648;2024-03-02T07:25:15;2.07;;;2.00;;
26686;SDS011;14298;50.900;4.648;2024-03-02T07:27:42;1.83;;;1.73;;
26686;SDS011;14298;50.900;4.648;2024-03-02T07:30:13;1.90;;;1.77;;
26686;SDS011;14298;50.900;4.648;2024-03-02T07:32:40;1.47;;;1.47;;
26686;SDS011;14298;50.900;4.648;2024-03-02T07:35:10;1.70;;;1.70;;
26686;SDS011;14298;50.900;4.648;2024-03-02T07:37:38;1.40;;;1.40;;
26686;SDS011;14298;50.900;4.648;2024-03-02T07:40:06;1.27;;;1.27;;
26686;SDS011;14298;50.900;4.648;2024-03-02T07:42:37;1.90;;;1.27;;
26686;SDS011;14298;50.900;4.648;2024-03-02T07:45:05;0.80;;;0.80;;
26686;SDS011;14298;50.900;4.648;2024-03-02T07:47:34;1.07;;;1.07;;
26686;SDS011;14298;50.900;4.648;2024-03-02T07:50:02;1.00;;;1.00;;
26686;SDS011;14298;50.900;4.648;2024-03-02T07:52:32;1.30;;;1.30;;
26686;SDS011;14298;50.900;4.648;2024-03-02T07:55:00;0.70;;;0.70;;
26686;SDS011;14298;50.900;4.648;2024-03-02T07:57:28;0.50;;;0.50;;
26686;SDS011;14298;50.900;4.648;2024-03-02T07:59:56;0.50;;;0.50;;
26686;SDS011;14298;50.900;4.648;2024-03-02T08:05:13;0.60;;;0.60;;
26686;SDS011;14298;50.900;4.648;2024-03-02T08:07:43;0.90;;;0.90;;
26686;SDS011;14298;50.900;4.648;2024-03-02T08:10:12;0.60;;;0.60;;
26686;SDS011;14298;50.900;4.648;2024-03-02T08:12:40;0.70;;;0.70;;
26686;SDS011;14298;50.900;4.648;2024-03-02T08:15:08;2.10;;;1.33;;
26686;SDS011;14298;50.900;4.648;2024-03-02T08:17:37;0.60;;;0.60;;
26686;SDS011;14298;50.900;4.648;2024-03-02T08:20:05;0.80;;;0.80;;
26686;SDS011;14298;50.900;4.648;2024-03-02T08:22:33;0.60;;;0.60;;
26686;SDS011;14298;50.900;4.648;2024-03-02T08:25:02;0.97;;;0.93;;
26686;SDS011;14298;50.900;4.648;2024-03-02T08:27:30;0.73;;;0.67;;
26686;SDS011;14298;50.900;4.648;2024-03-02T08:30:00;1.13;;;0.60;;
26686;SDS011;14298;50.900;4.648;2024-03-02T08:32:28;0.90;;;0.83;;
26686;SDS011;14298;50.900;4.648;2024-03-02T08:34:56;0.30;;;0.30;;
26686;SDS011;14298;50.900;4.648;2024-03-02T08:37:24;1.07;;;1.07;;
26686;SDS011;14298;50.900;4.648;2024-03-02T08:39:52;1.13;;;0.80;;
26686;SDS011;14298;50.900;4.648;2024-03-02T08:42:20;0.60;;;0.60;;
26686;SDS011;14298;50.900;4.648;2024-03-02T08:44:48;0.80;;;0.80;;
26686;SDS011;14298;50.900;4.648;2024-03-02T08:47:16;0.50;;;0.50;;
26686;SDS011;14298;50.900;4.648;2024-03-02T08:49:44;0.33;;;0.33;;
26686;SDS011;14298;50.900;4.648;2024-03-02T08:52:12;1.30;;;0.60;;
26686;SDS011;14298;50.900;4.648;2024-03-02T08:54:41;0.83;;;0.37;;
26686;SDS011;14298;50.900;4.648;2024-03-02T08:57:09;2.27;;;0.83;;
26686;SDS011;14298;50.900;4.648;2024-03-02T08:59:37;9.30;;;1.03;;
26686;SDS011;14298;50.900;4.648;2024-03-02T09:02:05;0.47;;;0.47;;
26686;SDS011;14298;50.900;4.648;2024-03-02T09:04:33;0.30;;;0.30;;
26686;SDS011;14298;50.900;4.648;2024-03-02T09:07:01;1.23;;;0.77;;
26686;SDS011;14298;50.900;4.648;2024-03-02T09:09:29;0.83;;;0.83;;
26686;SDS011;14298;50.900;4.648;2024-03-02T09:11:58;0.97;;;0.97;;
26686;SDS011;14298;50.900;4.648;2024-03-02T09:14:26;5.47;;;1.07;;
26686;SDS011;14298;50.900;4.648;2024-03-02T09:16:55;0.10;;;0.10;;
26686;SDS011;14298;50.900;4.648;2024-03-02T09:19:23;6.87;;;0.57;;
26686;SDS011;14298;50.900;4.648;2024-03-02T09:21:51;0.83;;;0.70;;
26686;SDS011;14298;50.900;4.648;2024-03-02T09:24:19;0.50;;;0.50;;
26686;SDS011;14298;50.900;4.648;2024-03-02T09:26:47;1.07;;;1.00;;
26686;SDS011;14298;50.900;4.648;2024-03-02T09:29:14;0.40;;;0.40;;
26686;SDS011;14298;50.900;4.648;2024-03-02T09:31:43;0.67;;;0.67;;
26686;SDS011;14298;50.900;4.648;2024-03-02T09:34:11;0.53;;;0.53;;
26686;SDS011;14298;50.900;4.648;2024-03-02T09:36:41;1.47;;;1.00;;
26686;SDS011;14298;50.900;4.648;2024-03-02T09:39:09;4.17;;;1.10;;
26686;SDS011;14298;50.900;4.648;2024-03-02T09:41:37;3.33;;;1.47;;
26686;SDS011;14298;50.900;4.648;2024-03-02T09:44:05;1.83;;;1.07;;
26686;SDS011;14298;50.900;4.648;2024-03-02T09:46:33;1.13;;;1.03;;
26686;SDS011;14298;50.900;4.648;2024-03-02T09:49:03;1.60;;;1.27;;
26686;SDS011;14298;50.900;4.648;2024-03-02T09:51:31;1.60;;;0.73;;
26686;SDS011;14298;50.900;4.648;2024-03-02T09:54:00;0.10;;;0.10;;
26686;SDS011;14298;50.900;4.648;2024-03-02T09:56:29;5.10;;;0.60;;
26686;SDS011;14298;50.900;4.648;2024-03-02T09:58:57;5.57;;;0.63;;
26686;SDS011;14298;50.900;4.648;2024-03-02T10:01:25;0.20;;;0.20;;
26686;SDS011;14298;50.900;4.648;2024-03-02T10:03:53;0.60;;;0.30;;
26686;SDS011;14298;50.900;4.648;2024-03-02T10:06:22;0.83;;;0.37;;
26686;SDS011;14298;50.900;4.648;2024-03-02T10:08:50;10.03;;;1.00;;
26686;SDS011;14298;50.900;4.648;2024-03-02T10:11:31;0.63;;;0.40;;
26686;SDS011;14298;50.900;4.648;2024-03-02T10:14:11;1.00;;;0.70;;
26686;SDS011;14298;50.900;4.648;2024-03-02T10:16:45;3.83;;;1.33;;
26686;SDS011;14298;50.900;4.648;2024-03-02T10:19:15;4.27;;;2.63;;
26686;SDS011;14298;50.900;4.648;2024-03-02T10:21:45;2.57;;;1.67;;
26686;SDS011;14298;50.900;4.648;2024-03-02T10:24:14;12.43;;;0.40;;
26686;SDS011;14298;50.900;4.648;2024-03-02T10:26:42;3.53;;;2.20;;
26686;SDS011;14298;50.900;4.648;2024-03-02T10:29:10;10.17;;;6.43;;
26686;SDS011;14298;50.900;4.648;2024-03-02T10:31:39;1.10;;;0.43;;
26686;SDS011;14298;50.900;4.648;2024-03-02T10:34:07;0.60;;;0.60;;
26686;SDS011;14298;50.900;4.648;2024-03-02T10:36:36;1.10;;;0.60;;
26686;SDS011;14298;50.900;4.648;2024-03-02T10:39:04;0.97;;;0.87;;
26686;SDS011;14298;50.900;4.648;2024-03-02T10:41:38;2.23;;;1.17;;
26686;SDS011;14298;50.900;4.648;2024-03-02T10:44:03;0.60;;;0.60;;
26686;SDS011;14298;50.900;4.648;2024-03-02T10:46:33;5.53;;;0.97;;
26686;SDS011;14298;50.900;4.648;2024-03-02T10:49:01;0.90;;;0.57;;
26686;SDS011;14298;50.900;4.648;2024-03-02T10:51:31;0.43;;;0.43;;
26686;SDS011;14298;50.900;4.648;2024-03-02T10:54:00;2.90;;;0.80;;
26686;SDS011;14298;50.900;4.648;2024-03-02T10:56:29;0.70;;;0.70;;
26686;SDS011;14298;50.900;4.648;2024-03-02T10:59:12;0.37;;;0.30;;
26686;SDS011;14298;50.900;4.648;2024-03-02T11:01:36;1.50;;;0.40;;
26686;SDS011;14298;50.900;4.648;2024-03-02T11:04:06;0.70;;;0.60;;
26686;SDS011;14298;50.900;4.648;2024-03-02T11:06:35;0.30;;;0.30;;
26686;SDS011;14298;50.900;4.648;2024-03-02T11:09:06;0.40;;;0.40;;
26686;SDS011;14298;50.900;4.648;2024-03-02T11:11:36;0.57;;;0.57;;
26686;SDS011;14298;50.900;4.648;2024-03-02T11:14:04;0.70;;;0.70;;
26686;SDS011;14298;50.900;4.648;2024-03-02T11:16:35;0.53;;;0.53;;
26686;SDS011;14298;50.900;4.648;2024-03-02T11:19:09;5.23;;;1.67;;
26686;SDS011;14298;50.900;4.648;2024-03-02T11:21:34;0.50;;;0.50;;
26686;SDS011;14298;50.900;4.648;2024-03-02T11:26:48;0.50;;;0.50;;
26686;SDS011;14298;50.900;4.648;2024-03-02T11:32:13;0.20;;;0.20;;
26686;SDS011;14298;50.900;4.648;2024-03-02T11:34:36;3.77;;;0.77;;
26686;SDS011;14298;50.900;4.648;2024-03-02T11:37:05;0.53;;;0.50;;
26686;SDS011;14298;50.900;4.648;2024-03-02T11:39:33;1.17;;;0.67;;
26686;SDS011;14298;50.900;4.648;2024-03-02T11:42:02;3.03;;;0.43;;
26686;SDS011;14298;50.900;4.648;2024-03-02T11:44:30;3.40;;;0.93;;
26686;SDS011;14298;50.900;4.648;2024-03-02T11:46:59;0.30;;;0.30;;
26686;SDS011;14298;50.900;4.648;2024-03-02T11:52:09;2.17;;;0.67;;
26686;SDS011;14298;50.900;4.648;2024-03-02T11:54:38;1.50;;;0.83;;
26686;SDS011;14298;50.900;4.648;2024-03-02T11:57:07;1.50;;;1.17;;
26686;SDS011;14298;50.900;4.648;2024-03-02T11:59:35;0.50;;;0.50;;
26686;SDS011;14298;50.900;4.648;2024-03-02T12:02:03;0.70;;;0.70;;
26686;SDS011;14298;50.900;4.648;2024-03-02T12:04:31;0.67;;;0.40;;
26686;SDS011;14298;50.900;4.648;2024-03-02T12:07:00;0.20;;;0.20;;
26686;SDS011;14298;50.900;4.648;2024-03-02T12:09:28;0.30;;;0.30;;
26686;SDS011;14298;50.900;4.648;2024-03-02T12:12:09;4.40;;;0.67;;
26686;SDS011;14298;50.900;4.648;2024-03-02T12:14:38;0.63;;;0.63;;
26686;SDS011;14298;50.900;4.648;2024-03-02T12:17:06;0.40;;;0.40;;
26686;SDS011;14298;50.900;4.648;2024-03-02T12:19:34;5.43;;;0.40;;
26686;SDS011;14298;50.900;4.648;2024-03-02T12:22:02;0.40;;;0.40;;
26686;SDS011;14298;50.900;4.648;2024-03-02T12:24:30;0.20;;;0.20;;
26686;SDS011;14298;50.900;4.648;2024-03-02T12:26:58;1.87;;;0.80;;
26686;SDS011;14298;50.900;4.648;2024-03-02T12:29:26;1.80;;;0.40;;
26686;SDS011;14298;50.900;4.648;2024-03-02T12:31:54;0.73;;;0.73;;
26686;SDS011;14298;50.900;4.648;2024-03-02T12:34:22;0.30;;;0.30;;
26686;SDS011;14298;50.900;4.648;2024-03-02T12:36:51;0.40;;;0.40;;
26686;SDS011;14298;50.900;4.648;2024-03-02T12:39:20;0.40;;;0.40;;
26686;SDS011;14298;50.900;4.648;2024-03-02T12:41:50;0.50;;;0.50;;
26686;SDS011;14298;50.900;4.648;2024-03-02T12:44:18;1.13;;;1.03;;
26686;SDS011;14298;50.900;4.648;2024-03-02T12:46:46;0.60;;;0.60;;
26686;SDS011;14298;50.900;4.648;2024-03-02T12:49:15;0.40;;;0.40;;
26686;SDS011;14298;50.900;4.648;2024-03-02T12:51:44;1.83;;;0.57;;
26686;SDS011;14298;50.900;4.648;2024-03-02T12:54:14;0.30;;;0.30;;
26686;SDS011;14298;50.900;4.648;2024-03-02T12:56:42;0.20;;;0.20;;
26686;SDS011;14298;50.900;4.648;2024-03-02T12:59:18;2.00;;;0.90;;
26686;SDS011;14298;50.900;4.648;2024-03-02T13:01:50;0.43;;;0.43;;
26686;SDS011;14298;50.900;4.648;2024-03-02T13:04:22;0.30;;;0.30;;
26686;SDS011;14298;50.900;4.648;2024-03-02T13:06:47;0.30;;;0.30;;
26686;SDS011;14298;50.900;4.648;2024-03-02T13:09:16;0.53;;;0.53;;
26686;SDS011;14298;50.900;4.648;2024-03-02T13:11:44;0.13;;;0.13;;
26686;SDS011;14298;50.900;4.648;2024-03-02T13:14:12;0.10;;;0.10;;
26686;SDS011;14298;50.900;4.648;2024-03-02T13:16:40;0.10;;;0.10;;
26686;SDS011;14298;50.900;4.648;2024-03-02T13:19:11;0.20;;;0.20;;
26686;SDS011;14298;50.900;4.648;2024-03-02T13:21:39;0.50;;;0.50;;
26686;SDS011;14298;50.900;4.648;2024-03-02T13:24:07;0.17;;;0.17;;
26686;SDS011;14298;50.900;4.648;2024-03-02T13:26:35;0.30;;;0.30;;
26686;SDS011;14298;50.900;4.648;2024-03-02T13:29:03;0.30;;;0.30;;
26686;SDS011;14298;50.900;4.648;2024-03-02T13:31:31;0.83;;;0.60;;
26686;SDS011;14298;50.900;4.648;2024-03-02T13:33:59;0.50;;;0.33;;
26686;SDS011;14298;50.900;4.648;2024-03-02T13:36:27;0.37;;;0.37;;
26686;SDS011;14298;50.900;4.648;2024-03-02T13:38:55;0.33;;;0.33;;
26686;SDS011;14298;50.900;4.648;2024-03-02T13:44:14;0.40;;;0.40;;
26686;SDS011;14298;50.900;4.648;2024-03-02T13:46:42;0.30;;;0.30;;
26686;SDS011;14298;50.900;4.648;2024-03-02T13:49:11;0.33;;;0.33;;
26686;SDS011;14298;50.900;4.648;2024-03-02T13:51:39;0.50;;;0.27;;
26686;SDS011;14298;50.900;4.648;2024-03-02T13:54:07;0.60;;;0.60;;
26686;SDS011;14298;50.900;4.648;2024-03-02T13:56:35;0.30;;;0.30;;
26686;SDS011;14298;50.900;4.648;2024-03-02T13:59:05;0.40;;;0.40;;
26686;SDS011;14298;50.900;4.648;2024-03-02T14:01:34;0.30;;;0.30;;
26686;SDS011;14298;50.900;4.648;2024-03-02T14:04:02;1.70;;;0.63;;
26686;SDS011;14298;50.900;4.648;2024-03-02T14:06:30;0.20;;;0.20;;
26686;SDS011;14298;50.900;4.648;2024-03-02T14:08:58;0.10;;;0.10;;
26686;SDS011;14298;50.900;4.648;2024-03-02T14:11:26;0.23;;;0.23;;
26686;SDS011;14298;50.900;4.648;2024-03-02T14:13:54;0.50;;;0.50;;
26686;SDS011;14298;50.900;4.648;2024-03-02T14:16:24;0.40;;;0.40;;
26686;SDS011;14298;50.900;4.648;2024-03-02T14:18:51;5.87;;;0.77;;
26686;SDS011;14298;50.900;4.648;2024-03-02T14:21:19;1.33;;;0.93;;
26686;SDS011;14298;50.900;4.648;2024-03-02T14:23:48;0.20;;;0.20;;
26686;SDS011;14298;50.900;4.648;2024-03-02T14:26:16;0.20;;;0.20;;
26686;SDS011;14298;50.900;4.648;2024-03-02T14:28:44;0.30;;;0.27;;
26686;SDS011;14298;50.900;4.648;2024-03-02T14:31:12;0.40;;;0.40;;
26686;SDS011;14298;50.900;4.648;2024-03-02T14:33:40;0.53;;;0.47;;
26686;SDS011;14298;50.900;4.648;2024-03-02T14:36:09;0.30;;;0.30;;
26686;SDS011;14298;50.900;4.648;2024-03-02T14:38:37;0.30;;;0.30;;
26686;SDS011;14298;50.900;4.648;2024-03-02T14:41:05;0.30;;;0.30;;
26686;SDS011;14298;50.900;4.648;2024-03-02T14:43:33;0.20;;;0.20;;
26686;SDS011;14298;50.900;4.648;2024-03-02T14:46:01;0.33;;;0.33;;
26686;SDS011;14298;50.900;4.648;2024-03-02T14:48:30;0.80;;;0.60;;
26686;SDS011;14298;50.900;4.648;2024-03-02T14:50:58;0.20;;;0.20;;
26686;SDS011;14298;50.900;4.648;2024-03-02T14:53:26;0.40;;;0.40;;
26686;SDS011;14298;50.900;4.648;2024-03-02T14:55:54;0.20;;;0.20;;
26686;SDS011;14298;50.900;4.648;2024-03-02T14:58:22;0.20;;;0.20;;
26686;SDS011;14298;50.900;4.648;2024-03-02T15:00:50;0.70;;;0.47;;
26686;SDS011;14298;50.900;4.648;2024-03-02T15:03:18;0.30;;;0.30;;
26686;SDS011;14298;50.900;4.648;2024-03-02T15:05:46;1.50;;;1.00;;
26686;SDS011;14298;50.900;4.648;2024-03-02T15:08:16;3.07;;;1.90;;
26686;SDS011;14298;50.900;4.648;2024-03-02T15:10:44;0.57;;;0.57;;
26686;SDS011;14298;50.900;4.648;2024-03-02T15:13:12;10.90;;;5.37;;
26686;SDS011;14298;50.900;4.648;2024-03-02T15:15:40;10.43;;;6.77;;
26686;SDS011;14298;50.900;4.648;2024-03-02T15:18:08;1.20;;;1.20;;
26686;SDS011;14298;50.900;4.648;2024-03-02T15:20:36;2.80;;;0.70;;
26686;SDS011;14298;50.900;4.648;2024-03-02T15:23:04;1.23;;;0.90;;
26686;SDS011;14298;50.900;4.648;2024-03-02T15:25:32;1.50;;;1.40;;
26686;SDS011;14298;50.900;4.648;2024-03-02T15:28:00;0.80;;;0.80;;
26686;SDS011;14298;50.900;4.648;2024-03-02T15:30:28;1.27;;;1.17;;
26686;SDS011;14298;50.900;4.648;2024-03-02T15:32:56;0.30;;;0.30;;